sensor_id;sensor_type;location;lat;lon;timestamp;P1;durP1;ratioP1;P2;durP2;ratioP2
787;SDS011;16074;42.708;23.312;2022-12-13T00:01:44;9.52;;;6.18;;
787;SDS011;16074;42.708;23.312;2022-12-13T00:04:13;9.32;;;6.18;;
787;SDS011;16074;42.708;23.312;2022-12-13T00:06:41;9.35;;;6.00;;
787;SDS011;16074;42.708;23.312;2022-12-13T00:09:12;8.45;;;5.53;;
787;SDS011;16074;42.708;23.312;2022-12-13T00:11:41;8.35;;;6.65;;
787;SDS011;16074;42.708;23.312;2022-12-13T00:14:10;8.15;;;5.13;;
787;SDS011;16074;42.708;23.312;2022-12-13T00:16:40;6.93;;;6.05;;
787;SDS011;16074;42.708;23.312;2022-12-13T00:19:12;8.90;;;6.13;;
787;SDS011;16074;42.708;23.312;2022-12-13T00:21:41;6.85;;;6.15;;
787;SDS011;16074;42.708;23.312;2022-12-13T00:24:09;9.25;;;6.60;;
787;SDS011;16074;42.708;23.312;2022-12-13T00:26:39;15.35;;;6.65;;
787;SDS011;16074;42.708;23.312;2022-12-13T00:29:07;7.88;;;6.38;;
787;SDS011;16074;42.708;23.312;2022-12-13T00:31:37;9.00;;;5.85;;
787;SDS011;16074;42.708;23.312;2022-12-13T00:34:25;7.70;;;6.15;;
787;SDS011;16074;42.708;23.312;2022-12-13T00:36:53;7.78;;;6.18;;
787;SDS011;16074;42.708;23.312;2022-12-13T00:39:24;8.07;;;6.15;;
787;SDS011;16074;42.708;23.312;2022-12-13T00:41:54;7.53;;;5.90;;
787;SDS011;16074;42.708;23.312;2022-12-13T00:44:22;8.82;;;6.22;;
787;SDS011;16074;42.708;23.312;2022-12-13T00:46:51;10.70;;;7.28;;
787;SDS011;16074;42.708;23.312;2022-12-13T00:49:19;8.98;;;6.40;;
787;SDS011;16074;42.708;23.312;2022-12-13T00:51:48;9.13;;;7.18;;
787;SDS011;16074;42.708;23.312;2022-12-13T00:54:16;11.90;;;7.68;;
787;SDS011;16074;42.708;23.312;2022-12-13T00:56:44;8.68;;;6.38;;
787;SDS011;16074;42.708;23.312;2022-12-13T00:59:14;8.00;;;6.80;;
787;SDS011;16074;42.708;23.312;2022-12-13T01:01:43;8.18;;;6.15;;
787;SDS011;16074;42.708;23.312;2022-12-13T01:04:12;10.07;;;7.45;;
787;SDS011;16074;42.708;23.312;2022-12-13T01:06:41;8.98;;;6.97;;
787;SDS011;16074;42.708;23.312;2022-12-13T01:09:13;10.90;;;8.05;;
787;SDS011;16074;42.708;23.312;2022-12-13T01:11:43;11.68;;;6.80;;
787;SDS011;16074;42.708;23.312;2022-12-13T01:14:12;8.55;;;7.20;;
787;SDS011;16074;42.708;23.312;2022-12-13T01:16:42;9.60;;;7.65;;
787;SDS011;16074;42.708;23.312;2022-12-13T01:19:10;7.55;;;6.32;;
787;SDS011;16074;42.708;23.312;2022-12-13T01:21:38;9.57;;;7.05;;
787;SDS011;16074;42.708;23.312;2022-12-13T01:24:09;9.13;;;6.75;;
787;SDS011;16074;42.708;23.312;2022-12-13T01:26:37;11.57;;;7.50;;
787;SDS011;16074;42.708;23.312;2022-12-13T01:29:06;12.13;;;7.75;;
787;SDS011;16074;42.708;23.312;2022-12-13T01:31:36;8.85;;;6.30;;
787;SDS011;16074;42.708;23.312;2022-12-13T01:34:09;10.75;;;7.43;;
787;SDS011;16074;42.708;23.312;2022-12-13T01:36:39;11.82;;;8.07;;
787;SDS011;16074;42.708;23.312;2022-12-13T01:39:10;11.73;;;7.70;;
787;SDS011;16074;42.708;23.312;2022-12-13T01:41:41;9.73;;;7.93;;
787;SDS011;16074;42.708;23.312;2022-12-13T01:47:16;14.63;;;8.52;;
787;SDS011;16074;42.708;23.312;2022-12-13T01:49:50;9.80;;;6.35;;
787;SDS011;16074;42.708;23.312;2022-12-13T01:52:25;12.65;;;7.10;;
787;SDS011;16074;42.708;23.312;2022-12-13T01:54:55;8.63;;;7.72;;
787;SDS011;16074;42.708;23.312;2022-12-13T01:57:41;11.43;;;7.47;;
787;SDS011;16074;42.708;23.312;2022-12-13T02:00:13;11.10;;;7.85;;
787;SDS011;16074;42.708;23.312;2022-12-13T02:02:43;10.60;;;7.65;;
787;SDS011;16074;42.708;23.312;2022-12-13T02:05:17;10.55;;;7.93;;
787;SDS011;16074;42.708;23.312;2022-12-13T02:07:52;10.10;;;7.15;;
787;SDS011;16074;42.708;23.312;2022-12-13T02:10:20;12.52;;;7.03;;
787;SDS011;16074;42.708;23.312;2022-12-13T02:12:49;10.25;;;8.05;;
787;SDS011;16074;42.708;23.312;2022-12-13T02:15:17;10.23;;;6.80;;
787;SDS011;16074;42.708;23.312;2022-12-13T02:17:51;12.88;;;8.80;;
787;SDS011;16074;42.708;23.312;2022-12-13T02:20:34;10.55;;;7.72;;
787;SDS011;16074;42.708;23.312;2022-12-13T02:26:41;15.40;;;9.25;;
787;SDS011;16074;42.708;23.312;2022-12-13T02:29:22;11.80;;;8.13;;
787;SDS011;16074;42.708;23.312;2022-12-13T02:32:16;10.27;;;7.60;;
787;SDS011;16074;42.708;23.312;2022-12-13T02:34:54;10.52;;;8.18;;
787;SDS011;16074;42.708;23.312;2022-12-13T02:37:30;13.85;;;8.52;;
787;SDS011;16074;42.708;23.312;2022-12-13T02:40:06;14.68;;;9.07;;
787;SDS011;16074;42.708;23.312;2022-12-13T02:42:42;13.40;;;8.18;;
787;SDS011;16074;42.708;23.312;2022-12-13T02:45:17;7.15;;;6.45;;
787;SDS011;16074;42.708;23.312;2022-12-13T02:47:52;11.77;;;8.82;;
787;SDS011;16074;42.708;23.312;2022-12-13T02:50:24;12.38;;;8.57;;
787;SDS011;16074;42.708;23.312;2022-12-13T02:52:54;11.88;;;9.35;;
787;SDS011;16074;42.708;23.312;2022-12-13T02:55:22;14.88;;;9.75;;
787;SDS011;16074;42.708;23.312;2022-12-13T02:57:54;14.43;;;9.90;;
787;SDS011;16074;42.708;23.312;2022-12-13T03:00:22;15.98;;;8.88;;
787;SDS011;16074;42.708;23.312;2022-12-13T03:03:05;11.43;;;8.80;;
787;SDS011;16074;42.708;23.312;2022-12-13T03:05:45;12.55;;;8.02;;
787;SDS011;16074;42.708;23.312;2022-12-13T03:08:37;13.30;;;10.35;;
787;SDS011;16074;42.708;23.312;2022-12-13T03:11:15;12.07;;;7.60;;
787;SDS011;16074;42.708;23.312;2022-12-13T03:13:47;11.88;;;8.38;;
787;SDS011;16074;42.708;23.312;2022-12-13T03:16:28;14.90;;;10.55;;
787;SDS011;16074;42.708;23.312;2022-12-13T03:19:03;23.52;;;13.60;;
787;SDS011;16074;42.708;23.312;2022-12-13T03:21:37;22.70;;;12.77;;
787;SDS011;16074;42.708;23.312;2022-12-13T03:24:14;15.13;;;10.73;;
787;SDS011;16074;42.708;23.312;2022-12-13T03:26:44;13.15;;;10.02;;
787;SDS011;16074;42.708;23.312;2022-12-13T03:29:14;15.95;;;9.88;;
787;SDS011;16074;42.708;23.312;2022-12-13T03:31:50;15.57;;;8.95;;
787;SDS011;16074;42.708;23.312;2022-12-13T03:34:20;14.18;;;9.10;;
787;SDS011;16074;42.708;23.312;2022-12-13T03:36:49;13.73;;;9.15;;
787;SDS011;16074;42.708;23.312;2022-12-13T03:39:17;13.80;;;9.60;;
787;SDS011;16074;42.708;23.312;2022-12-13T03:41:47;19.70;;;10.55;;
787;SDS011;16074;42.708;23.312;2022-12-13T03:44:15;15.30;;;9.95;;
787;SDS011;16074;42.708;23.312;2022-12-13T03:46:44;12.05;;;10.40;;
787;SDS011;16074;42.708;23.312;2022-12-13T03:49:12;15.35;;;11.52;;
787;SDS011;16074;42.708;23.312;2022-12-13T03:51:44;12.82;;;8.68;;
787;SDS011;16074;42.708;23.312;2022-12-13T03:54:13;15.73;;;10.13;;
787;SDS011;16074;42.708;23.312;2022-12-13T03:56:41;12.20;;;10.27;;
787;SDS011;16074;42.708;23.312;2022-12-13T03:59:09;15.30;;;9.18;;
787;SDS011;16074;42.708;23.312;2022-12-13T04:01:38;13.07;;;9.95;;
787;SDS011;16074;42.708;23.312;2022-12-13T04:04:06;14.77;;;9.30;;
787;SDS011;16074;42.708;23.312;2022-12-13T04:06:34;11.23;;;8.73;;
787;SDS011;16074;42.708;23.312;2022-12-13T04:09:04;13.27;;;9.77;;
787;SDS011;16074;42.708;23.312;2022-12-13T04:11:32;15.18;;;10.63;;
787;SDS011;16074;42.708;23.312;2022-12-13T04:14:17;13.65;;;9.77;;
787;SDS011;16074;42.708;23.312;2022-12-13T04:16:49;13.93;;;10.10;;
787;SDS011;16074;42.708;23.312;2022-12-13T04:19:18;13.70;;;10.05;;
787;SDS011;16074;42.708;23.312;2022-12-13T04:21:49;23.70;;;11.20;;
787;SDS011;16074;42.708;23.312;2022-12-13T04:24:21;14.68;;;10.43;;
787;SDS011;16074;42.708;23.312;2022-12-13T04:26:57;11.93;;;9.50;;
787;SDS011;16074;42.708;23.312;2022-12-13T04:29:26;14.85;;;9.93;;
787;SDS011;16074;42.708;23.312;2022-12-13T04:32:00;14.25;;;10.23;;
787;SDS011;16074;42.708;23.312;2022-12-13T04:34:29;16.48;;;11.13;;
787;SDS011;16074;42.708;23.312;2022-12-13T04:37:03;18.67;;;12.52;;
787;SDS011;16074;42.708;23.312;2022-12-13T04:39:33;19.55;;;12.30;;
787;SDS011;16074;42.708;23.312;2022-12-13T04:42:01;16.85;;;12.05;;
787;SDS011;16074;42.708;23.312;2022-12-13T04:44:30;26.52;;;14.20;;
787;SDS011;16074;42.708;23.312;2022-12-13T04:47:02;20.85;;;14.63;;
787;SDS011;16074;42.708;23.312;2022-12-13T04:49:31;21.50;;;14.10;;
787;SDS011;16074;42.708;23.312;2022-12-13T04:52:00;17.10;;;10.40;;
787;SDS011;16074;42.708;23.312;2022-12-13T04:54:29;13.70;;;11.45;;
787;SDS011;16074;42.708;23.312;2022-12-13T04:57:05;15.63;;;10.70;;
787;SDS011;16074;42.708;23.312;2022-12-13T04:59:35;18.83;;;11.43;;
787;SDS011;16074;42.708;23.312;2022-12-13T05:02:05;16.15;;;10.98;;
787;SDS011;16074;42.708;23.312;2022-12-13T05:04:34;21.17;;;13.18;;
787;SDS011;16074;42.708;23.312;2022-12-13T05:07:02;16.05;;;11.35;;
787;SDS011;16074;42.708;23.312;2022-12-13T05:09:31;16.90;;;10.88;;
787;SDS011;16074;42.708;23.312;2022-12-13T05:11:59;21.55;;;11.63;;
787;SDS011;16074;42.708;23.312;2022-12-13T05:14:29;17.55;;;12.70;;
787;SDS011;16074;42.708;23.312;2022-12-13T05:16:58;15.52;;;11.27;;
787;SDS011;16074;42.708;23.312;2022-12-13T05:19:27;16.67;;;11.00;;
787;SDS011;16074;42.708;23.312;2022-12-13T05:21:57;21.55;;;12.30;;
787;SDS011;16074;42.708;23.312;2022-12-13T05:24:28;16.42;;;11.48;;
787;SDS011;16074;42.708;23.312;2022-12-13T05:26:57;13.35;;;11.80;;
787;SDS011;16074;42.708;23.312;2022-12-13T05:29:25;17.50;;;11.95;;
787;SDS011;16074;42.708;23.312;2022-12-13T05:31:55;16.30;;;11.90;;
787;SDS011;16074;42.708;23.312;2022-12-13T05:34:23;17.40;;;12.00;;
787;SDS011;16074;42.708;23.312;2022-12-13T05:36:52;19.80;;;13.55;;
787;SDS011;16074;42.708;23.312;2022-12-13T05:39:20;15.75;;;10.73;;
787;SDS011;16074;42.708;23.312;2022-12-13T05:41:55;14.40;;;11.23;;
787;SDS011;16074;42.708;23.312;2022-12-13T05:44:28;17.40;;;10.77;;
787;SDS011;16074;42.708;23.312;2022-12-13T05:46:59;20.10;;;11.73;;
787;SDS011;16074;42.708;23.312;2022-12-13T05:49:29;14.07;;;9.63;;
787;SDS011;16074;42.708;23.312;2022-12-13T05:51:58;19.55;;;12.40;;
787;SDS011;16074;42.708;23.312;2022-12-13T05:54:26;16.38;;;11.90;;
787;SDS011;16074;42.708;23.312;2022-12-13T05:56:55;15.05;;;11.20;;
787;SDS011;16074;42.708;23.312;2022-12-13T05:59:23;19.30;;;12.68;;
787;SDS011;16074;42.708;23.312;2022-12-13T06:01:51;14.40;;;10.95;;
787;SDS011;16074;42.708;23.312;2022-12-13T06:04:21;20.55;;;11.30;;
787;SDS011;16074;42.708;23.312;2022-12-13T06:06:50;13.55;;;11.93;;
787;SDS011;16074;42.708;23.312;2022-12-13T06:09:19;17.05;;;12.23;;
787;SDS011;16074;42.708;23.312;2022-12-13T06:11:48;20.35;;;12.77;;
787;SDS011;16074;42.708;23.312;2022-12-13T06:14:16;17.17;;;12.55;;
787;SDS011;16074;42.708;23.312;2022-12-13T06:16:49;20.63;;;12.77;;
787;SDS011;16074;42.708;23.312;2022-12-13T06:19:18;20.73;;;14.15;;
787;SDS011;16074;42.708;23.312;2022-12-13T06:21:49;16.42;;;11.45;;
787;SDS011;16074;42.708;23.312;2022-12-13T06:24:20;19.17;;;11.90;;
787;SDS011;16074;42.708;23.312;2022-12-13T06:26:49;20.95;;;12.00;;
787;SDS011;16074;42.708;23.312;2022-12-13T06:29:19;20.83;;;12.02;;
787;SDS011;16074;42.708;23.312;2022-12-13T06:31:52;15.95;;;13.30;;
787;SDS011;16074;42.708;23.312;2022-12-13T06:34:29;17.73;;;12.27;;
787;SDS011;16074;42.708;23.312;2022-12-13T06:37:01;21.27;;;13.70;;
787;SDS011;16074;42.708;23.312;2022-12-13T06:39:31;16.48;;;11.02;;
787;SDS011;16074;42.708;23.312;2022-12-13T06:42:00;17.77;;;11.52;;
787;SDS011;16074;42.708;23.312;2022-12-13T06:44:32;17.70;;;12.93;;
787;SDS011;16074;42.708;23.312;2022-12-13T06:47:02;19.92;;;13.82;;
787;SDS011;16074;42.708;23.312;2022-12-13T06:49:41;18.50;;;13.77;;
787;SDS011;16074;42.708;23.312;2022-12-13T06:52:13;17.55;;;11.60;;
787;SDS011;16074;42.708;23.312;2022-12-13T06:54:41;20.38;;;13.07;;
787;SDS011;16074;42.708;23.312;2022-12-13T06:57:10;16.85;;;12.88;;
787;SDS011;16074;42.708;23.312;2022-12-13T06:59:39;20.95;;;13.00;;
787;SDS011;16074;42.708;23.312;2022-12-13T07:02:08;19.13;;;13.63;;
787;SDS011;16074;42.708;23.312;2022-12-13T07:04:51;21.00;;;13.57;;
787;SDS011;16074;42.708;23.312;2022-12-13T07:07:22;19.58;;;12.45;;
787;SDS011;16074;42.708;23.312;2022-12-13T07:09:51;17.23;;;14.55;;
787;SDS011;16074;42.708;23.312;2022-12-13T07:12:19;20.55;;;15.20;;
787;SDS011;16074;42.708;23.312;2022-12-13T07:14:48;22.65;;;14.43;;
787;SDS011;16074;42.708;23.312;2022-12-13T07:17:16;13.18;;;11.75;;
787;SDS011;16074;42.708;23.312;2022-12-13T07:20:00;20.55;;;14.55;;
787;SDS011;16074;42.708;23.312;2022-12-13T07:22:36;20.58;;;14.40;;
787;SDS011;16074;42.708;23.312;2022-12-13T07:25:13;25.88;;;15.10;;
787;SDS011;16074;42.708;23.312;2022-12-13T07:27:54;25.25;;;13.85;;
787;SDS011;16074;42.708;23.312;2022-12-13T07:30:28;19.48;;;14.15;;
787;SDS011;16074;42.708;23.312;2022-12-13T07:32:57;23.02;;;15.00;;
787;SDS011;16074;42.708;23.312;2022-12-13T07:35:25;22.02;;;14.00;;
787;SDS011;16074;42.708;23.312;2022-12-13T07:37:55;17.95;;;13.30;;
787;SDS011;16074;42.708;23.312;2022-12-13T07:40:23;24.00;;;15.43;;
787;SDS011;16074;42.708;23.312;2022-12-13T07:42:52;24.30;;;15.38;;
787;SDS011;16074;42.708;23.312;2022-12-13T07:45:24;23.70;;;13.82;;
787;SDS011;16074;42.708;23.312;2022-12-13T07:47:52;22.85;;;14.70;;
787;SDS011;16074;42.708;23.312;2022-12-13T07:50:20;22.92;;;15.70;;
787;SDS011;16074;42.708;23.312;2022-12-13T07:52:51;22.17;;;14.95;;
787;SDS011;16074;42.708;23.312;2022-12-13T07:55:20;23.98;;;16.55;;
787;SDS011;16074;42.708;23.312;2022-12-13T07:58:07;28.10;;;18.67;;
787;SDS011;16074;42.708;23.312;2022-12-13T08:00:37;25.33;;;16.45;;
787;SDS011;16074;42.708;23.312;2022-12-13T08:03:12;18.38;;;14.70;;
787;SDS011;16074;42.708;23.312;2022-12-13T08:05:57;21.83;;;14.98;;
787;SDS011;16074;42.708;23.312;2022-12-13T08:08:26;29.73;;;18.17;;
787;SDS011;16074;42.708;23.312;2022-12-13T08:11:02;51.15;;;25.95;;
787;SDS011;16074;42.708;23.312;2022-12-13T08:13:30;25.35;;;16.70;;
787;SDS011;16074;42.708;23.312;2022-12-13T08:15:58;28.65;;;17.77;;
787;SDS011;16074;42.708;23.312;2022-12-13T08:18:28;28.48;;;19.52;;
787;SDS011;16074;42.708;23.312;2022-12-13T08:20:57;29.55;;;16.63;;
787;SDS011;16074;42.708;23.312;2022-12-13T08:23:26;21.23;;;15.40;;
787;SDS011;16074;42.708;23.312;2022-12-13T08:25:56;27.00;;;17.45;;
787;SDS011;16074;42.708;23.312;2022-12-13T08:28:26;21.10;;;13.52;;
787;SDS011;16074;42.708;23.312;2022-12-13T08:31:01;17.40;;;11.93;;
787;SDS011;16074;42.708;23.312;2022-12-13T08:33:30;17.17;;;11.02;;
787;SDS011;16074;42.708;23.312;2022-12-13T08:36:06;14.48;;;12.25;;
787;SDS011;16074;42.708;23.312;2022-12-13T08:38:35;18.70;;;14.73;;
787;SDS011;16074;42.708;23.312;2022-12-13T08:41:04;18.77;;;11.38;;
787;SDS011;16074;42.708;23.312;2022-12-13T08:43:34;21.98;;;11.48;;
787;SDS011;16074;42.708;23.312;2022-12-13T08:46:03;13.60;;;10.65;;
787;SDS011;16074;42.708;23.312;2022-12-13T08:48:31;17.83;;;11.40;;
787;SDS011;16074;42.708;23.312;2022-12-13T08:51:10;15.32;;;10.80;;
787;SDS011;16074;42.708;23.312;2022-12-13T08:53:50;13.77;;;10.65;;
787;SDS011;16074;42.708;23.312;2022-12-13T08:56:36;12.63;;;10.05;;
787;SDS011;16074;42.708;23.312;2022-12-13T08:59:10;15.50;;;10.05;;
787;SDS011;16074;42.708;23.312;2022-12-13T09:01:41;15.27;;;11.73;;
787;SDS011;16074;42.708;23.312;2022-12-13T09:04:09;17.05;;;12.93;;
787;SDS011;16074;42.708;23.312;2022-12-13T09:06:40;11.20;;;10.13;;
787;SDS011;16074;42.708;23.312;2022-12-13T09:09:08;12.35;;;10.77;;
787;SDS011;16074;42.708;23.312;2022-12-13T09:11:37;10.50;;;9.13;;
787;SDS011;16074;42.708;23.312;2022-12-13T09:14:07;11.00;;;9.02;;
787;SDS011;16074;42.708;23.312;2022-12-13T09:16:41;13.63;;;9.38;;
787;SDS011;16074;42.708;23.312;2022-12-13T09:19:16;13.38;;;9.85;;
787;SDS011;16074;42.708;23.312;2022-12-13T09:21:52;8.35;;;7.00;;
787;SDS011;16074;42.708;23.312;2022-12-13T09:24:28;9.73;;;7.63;;
787;SDS011;16074;42.708;23.312;2022-12-13T09:27:02;7.80;;;6.88;;
787;SDS011;16074;42.708;23.312;2022-12-13T09:29:35;10.23;;;7.00;;
787;SDS011;16074;42.708;23.312;2022-12-13T09:32:05;7.75;;;6.88;;
787;SDS011;16074;42.708;23.312;2022-12-13T09:34:33;10.35;;;7.65;;
787;SDS011;16074;42.708;23.312;2022-12-13T09:37:04;11.50;;;9.02;;
787;SDS011;16074;42.708;23.312;2022-12-13T09:39:32;11.70;;;9.30;;
787;SDS011;16074;42.708;23.312;2022-12-13T09:42:01;12.73;;;10.02;;
787;SDS011;16074;42.708;23.312;2022-12-13T09:44:37;10.02;;;8.93;;
787;SDS011;16074;42.708;23.312;2022-12-13T09:47:24;15.88;;;10.30;;
787;SDS011;16074;42.708;23.312;2022-12-13T09:50:04;13.63;;;8.77;;
787;SDS011;16074;42.708;23.312;2022-12-13T09:52:42;13.48;;;8.75;;
787;SDS011;16074;42.708;23.312;2022-12-13T09:55:19;17.25;;;13.98;;
787;SDS011;16074;42.708;23.312;2022-12-13T09:57:49;12.60;;;9.98;;
787;SDS011;16074;42.708;23.312;2022-12-13T10:00:19;10.73;;;8.65;;
787;SDS011;16074;42.708;23.312;2022-12-13T10:02:50;11.32;;;8.93;;
787;SDS011;16074;42.708;23.312;2022-12-13T10:05:21;12.07;;;7.80;;
787;SDS011;16074;42.708;23.312;2022-12-13T10:08:04;10.80;;;8.10;;
787;SDS011;16074;42.708;23.312;2022-12-13T10:10:35;10.85;;;8.35;;
787;SDS011;16074;42.708;23.312;2022-12-13T10:13:08;13.35;;;9.52;;
787;SDS011;16074;42.708;23.312;2022-12-13T10:15:44;10.05;;;8.32;;
787;SDS011;16074;42.708;23.312;2022-12-13T10:18:20;13.95;;;9.85;;
787;SDS011;16074;42.708;23.312;2022-12-13T10:20:53;12.95;;;9.60;;
787;SDS011;16074;42.708;23.312;2022-12-13T10:23:23;11.30;;;9.38;;
787;SDS011;16074;42.708;23.312;2022-12-13T10:26:11;14.88;;;10.93;;
787;SDS011;16074;42.708;23.312;2022-12-13T10:28:50;11.88;;;8.60;;
787;SDS011;16074;42.708;23.312;2022-12-13T10:31:29;13.63;;;9.68;;
787;SDS011;16074;42.708;23.312;2022-12-13T10:34:13;11.85;;;9.40;;
787;SDS011;16074;42.708;23.312;2022-12-13T10:36:47;9.30;;;8.40;;
787;SDS011;16074;42.708;23.312;2022-12-13T10:39:17;17.10;;;10.70;;
787;SDS011;16074;42.708;23.312;2022-12-13T10:42:02;13.38;;;9.90;;
787;SDS011;16074;42.708;23.312;2022-12-13T10:44:31;11.95;;;9.90;;
787;SDS011;16074;42.708;23.312;2022-12-13T10:47:02;14.60;;;9.90;;
787;SDS011;16074;42.708;23.312;2022-12-13T10:49:48;12.00;;;9.30;;
787;SDS011;16074;42.708;23.312;2022-12-13T10:52:25;9.05;;;7.63;;
787;SDS011;16074;42.708;23.312;2022-12-13T10:54:58;11.13;;;8.00;;
787;SDS011;16074;42.708;23.312;2022-12-13T10:57:49;7.47;;;6.75;;
787;SDS011;16074;42.708;23.312;2022-12-13T11:00:33;9.90;;;7.80;;
787;SDS011;16074;42.708;23.312;2022-12-13T11:03:05;13.23;;;9.93;;
787;SDS011;16074;42.708;23.312;2022-12-13T11:05:36;8.70;;;7.85;;
787;SDS011;16074;42.708;23.312;2022-12-13T11:08:13;13.02;;;8.32;;
787;SDS011;16074;42.708;23.312;2022-12-13T11:10:55;11.00;;;8.55;;
787;SDS011;16074;42.708;23.312;2022-12-13T11:13:27;9.60;;;7.80;;
787;SDS011;16074;42.708;23.312;2022-12-13T11:16:04;8.60;;;6.80;;
787;SDS011;16074;42.708;23.312;2022-12-13T11:18:49;9.45;;;7.00;;
787;SDS011;16074;42.708;23.312;2022-12-13T11:21:23;9.82;;;8.30;;
787;SDS011;16074;42.708;23.312;2022-12-13T11:23:53;9.65;;;8.07;;
787;SDS011;16074;42.708;23.312;2022-12-13T11:26:27;7.68;;;6.40;;
787;SDS011;16074;42.708;23.312;2022-12-13T11:29:02;11.60;;;7.28;;
787;SDS011;16074;42.708;23.312;2022-12-13T11:31:40;14.15;;;8.20;;
787;SDS011;16074;42.708;23.312;2022-12-13T11:34:20;9.82;;;8.35;;
787;SDS011;16074;42.708;23.312;2022-12-13T11:36:56;8.73;;;7.55;;
787;SDS011;16074;42.708;23.312;2022-12-13T11:39:33;9.50;;;8.60;;
787;SDS011;16074;42.708;23.312;2022-12-13T11:42:04;12.30;;;9.65;;
787;SDS011;16074;42.708;23.312;2022-12-13T11:44:41;8.77;;;7.70;;
787;SDS011;16074;42.708;23.312;2022-12-13T11:47:20;7.63;;;6.78;;
787;SDS011;16074;42.708;23.312;2022-12-13T11:49:52;9.80;;;8.43;;
787;SDS011;16074;42.708;23.312;2022-12-13T11:52:23;14.35;;;9.20;;
787;SDS011;16074;42.708;23.312;2022-12-13T11:54:55;13.02;;;9.57;;
787;SDS011;16074;42.708;23.312;2022-12-13T11:57:32;11.30;;;9.43;;
787;SDS011;16074;42.708;23.312;2022-12-13T12:00:17;9.73;;;8.75;;
787;SDS011;16074;42.708;23.312;2022-12-13T12:03:13;13.60;;;11.32;;
787;SDS011;16074;42.708;23.312;2022-12-13T12:05:46;11.35;;;10.25;;
787;SDS011;16074;42.708;23.312;2022-12-13T12:08:24;11.20;;;8.95;;
787;SDS011;16074;42.708;23.312;2022-12-13T12:11:02;10.18;;;9.10;;
787;SDS011;16074;42.708;23.312;2022-12-13T12:13:40;11.93;;;9.05;;
787;SDS011;16074;42.708;23.312;2022-12-13T12:16:24;14.90;;;10.30;;
787;SDS011;16074;42.708;23.312;2022-12-13T12:18:59;14.52;;;10.63;;
787;SDS011;16074;42.708;23.312;2022-12-13T12:21:35;13.85;;;10.63;;
787;SDS011;16074;42.708;23.312;2022-12-13T12:24:28;16.58;;;11.25;;
787;SDS011;16074;42.708;23.312;2022-12-13T12:27:10;15.25;;;12.77;;
787;SDS011;16074;42.708;23.312;2022-12-13T12:29:55;10.90;;;8.70;;
787;SDS011;16074;42.708;23.312;2022-12-13T12:32:36;10.23;;;7.78;;
787;SDS011;16074;42.708;23.312;2022-12-13T12:35:15;9.48;;;8.45;;
787;SDS011;16074;42.708;23.312;2022-12-13T12:37:58;8.75;;;7.20;;
787;SDS011;16074;42.708;23.312;2022-12-13T12:40:42;7.20;;;6.10;;
787;SDS011;16074;42.708;23.312;2022-12-13T12:43:42;7.43;;;6.55;;
787;SDS011;16074;42.708;23.312;2022-12-13T12:46:20;9.75;;;7.93;;
787;SDS011;16074;42.708;23.312;2022-12-13T12:49:31;16.00;;;9.30;;
787;SDS011;16074;42.708;23.312;2022-12-13T12:52:18;14.32;;;9.75;;
787;SDS011;16074;42.708;23.312;2022-12-13T12:54:56;9.85;;;8.63;;
787;SDS011;16074;42.708;23.312;2022-12-13T12:57:42;12.70;;;10.10;;
787;SDS011;16074;42.708;23.312;2022-12-13T13:00:24;11.23;;;7.70;;
787;SDS011;16074;42.708;23.312;2022-12-13T13:02:58;17.08;;;10.35;;
787;SDS011;16074;42.708;23.312;2022-12-13T13:05:46;12.40;;;9.38;;
787;SDS011;16074;42.708;23.312;2022-12-13T13:08:27;13.38;;;9.68;;
787;SDS011;16074;42.708;23.312;2022-12-13T13:11:02;11.45;;;9.88;;
787;SDS011;16074;42.708;23.312;2022-12-13T13:14:23;16.05;;;10.70;;
787;SDS011;16074;42.708;23.312;2022-12-13T13:16:54;14.73;;;11.00;;
787;SDS011;16074;42.708;23.312;2022-12-13T13:19:44;16.15;;;12.68;;
787;SDS011;16074;42.708;23.312;2022-12-13T13:22:29;15.15;;;11.48;;
787;SDS011;16074;42.708;23.312;2022-12-13T13:25:19;13.13;;;10.05;;
787;SDS011;16074;42.708;23.312;2022-12-13T13:27:49;15.35;;;10.55;;
787;SDS011;16074;42.708;23.312;2022-12-13T13:30:20;12.23;;;10.93;;
787;SDS011;16074;42.708;23.312;2022-12-13T13:32:50;16.65;;;11.82;;
787;SDS011;16074;42.708;23.312;2022-12-13T13:38:26;13.80;;;10.60;;
787;SDS011;16074;42.708;23.312;2022-12-13T13:44:32;17.05;;;12.02;;
787;SDS011;16074;42.708;23.312;2022-12-13T13:47:27;11.25;;;9.23;;
787;SDS011;16074;42.708;23.312;2022-12-13T13:50:02;10.52;;;9.02;;
787;SDS011;16074;42.708;23.312;2022-12-13T13:52:51;16.45;;;10.63;;
787;SDS011;16074;42.708;23.312;2022-12-13T13:55:35;13.45;;;10.70;;
787;SDS011;16074;42.708;23.312;2022-12-13T14:01:44;10.15;;;9.13;;
787;SDS011;16074;42.708;23.312;2022-12-13T14:04:42;15.50;;;11.40;;
787;SDS011;16074;42.708;23.312;2022-12-13T14:07:30;20.10;;;14.48;;
787;SDS011;16074;42.708;23.312;2022-12-13T14:10:18;17.95;;;11.80;;
787;SDS011;16074;42.708;23.312;2022-12-13T14:22:25;17.85;;;11.52;;
787;SDS011;16074;42.708;23.312;2022-12-13T14:25:16;23.67;;;14.88;;
787;SDS011;16074;42.708;23.312;2022-12-13T14:28:17;18.38;;;13.90;;
787;SDS011;16074;42.708;23.312;2022-12-13T14:30:54;18.38;;;14.35;;
787;SDS011;16074;42.708;23.312;2022-12-13T14:33:23;19.13;;;12.90;;
787;SDS011;16074;42.708;23.312;2022-12-13T14:35:54;24.80;;;15.38;;
787;SDS011;16074;42.708;23.312;2022-12-13T14:38:27;18.50;;;13.73;;
787;SDS011;16074;42.708;23.312;2022-12-13T14:40:57;22.65;;;14.10;;
787;SDS011;16074;42.708;23.312;2022-12-13T14:43:27;21.00;;;16.00;;
787;SDS011;16074;42.708;23.312;2022-12-13T14:45:57;21.83;;;15.93;;
787;SDS011;16074;42.708;23.312;2022-12-13T14:48:27;23.08;;;15.85;;
787;SDS011;16074;42.708;23.312;2022-12-13T14:50:57;22.05;;;17.27;;
787;SDS011;16074;42.708;23.312;2022-12-13T14:53:27;23.20;;;16.52;;
787;SDS011;16074;42.708;23.312;2022-12-13T14:56:04;18.70;;;16.60;;
787;SDS011;16074;42.708;23.312;2022-12-13T14:58:35;26.73;;;15.05;;
787;SDS011;16074;42.708;23.312;2022-12-13T15:01:05;20.50;;;16.70;;
787;SDS011;16074;42.708;23.312;2022-12-13T15:06:45;26.25;;;16.67;;
787;SDS011;16074;42.708;23.312;2022-12-13T15:09:17;27.08;;;17.13;;
787;SDS011;16074;42.708;23.312;2022-12-13T15:11:45;18.80;;;14.82;;
787;SDS011;16074;42.708;23.312;2022-12-13T15:14:14;24.13;;;17.50;;
787;SDS011;16074;42.708;23.312;2022-12-13T15:16:49;31.13;;;19.50;;
787;SDS011;16074;42.708;23.312;2022-12-13T15:19:25;30.90;;;21.75;;
787;SDS011;16074;42.708;23.312;2022-12-13T15:22:02;33.45;;;24.75;;
787;SDS011;16074;42.708;23.312;2022-12-13T15:24:42;35.60;;;24.58;;
787;SDS011;16074;42.708;23.312;2022-12-13T15:27:20;36.95;;;25.92;;
787;SDS011;16074;42.708;23.312;2022-12-13T15:29:50;36.22;;;26.35;;
787;SDS011;16074;42.708;23.312;2022-12-13T15:32:20;28.60;;;21.20;;
787;SDS011;16074;42.708;23.312;2022-12-13T15:34:50;31.75;;;21.40;;
787;SDS011;16074;42.708;23.312;2022-12-13T15:37:21;22.73;;;17.95;;
787;SDS011;16074;42.708;23.312;2022-12-13T15:39:58;28.10;;;19.83;;
787;SDS011;16074;42.708;23.312;2022-12-13T15:42:29;39.08;;;25.63;;
787;SDS011;16074;42.708;23.312;2022-12-13T15:45:00;38.67;;;26.15;;
787;SDS011;16074;42.708;23.312;2022-12-13T15:47:31;38.42;;;27.20;;
787;SDS011;16074;42.708;23.312;2022-12-13T15:50:00;45.92;;;28.25;;
787;SDS011;16074;42.708;23.312;2022-12-13T15:52:31;47.03;;;31.95;;